sensor_id;sensor_type;location;lat;lon;timestamp;temperature;humidity
31979;DHT22;18502;43.574;1.276;2022-10-16T00:01:28;16.80;99.90
31979;DHT22;18502;43.574;1.276;2022-10-16T00:03:55;16.80;99.90
31979;DHT22;18502;43.574;1.276;2022-10-16T00:06:21;16.90;99.90
31979;DHT22;18502;43.574;1.276;2022-10-16T00:08:48;16.90;99.90
31979;DHT22;18502;43.574;1.276;2022-10-16T00:11:22;16.90;99.90
31979;DHT22;18502;43.574;1.276;2022-10-16T00:13:49;16.90;99.90
31979;DHT22;18502;43.574;1.276;2022-10-16T00:16:16;16.90;99.90
31979;DHT22;18502;43.574;1.276;2022-10-16T00:18:42;16.80;99.90
31979;DHT22;18502;43.574;1.276;2022-10-16T00:21:21;16.70;99.90
31979;DHT22;18502;43.574;1.276;2022-10-16T00:23:50;16.80;99.90
31979;DHT22;18502;43.574;1.276;2022-10-16T00:26:17;16.80;99.90
31979;DHT22;18502;43.574;1.276;2022-10-16T00:28:46;16.70;99.90
31979;DHT22;18502;43.574;1.276;2022-10-16T00:31:12;16.70;99.90
31979;DHT22;18502;43.574;1.276;2022-10-16T00:33:39;16.70;99.90
31979;DHT22;18502;43.574;1.276;2022-10-16T00:36:05;16.80;99.90
31979;DHT22;18502;43.574;1.276;2022-10-16T00:38:32;16.80;99.90
31979;DHT22;18502;43.574;1.276;2022-10-16T00:40:58;16.80;99.90
31979;DHT22;18502;43.574;1.276;2022-10-16T00:48:40;17.00;99.90
31979;DHT22;18502;43.574;1.276;2022-10-16T00:51:07;17.00;99.90
31979;DHT22;18502;43.574;1.276;2022-10-16T00:53:33;17.00;99.90
31979;DHT22;18502;43.574;1.276;2022-10-16T00:56:00;17.10;99.90
31979;DHT22;18502;43.574;1.276;2022-10-16T00:58:26;17.10;99.90
31979;DHT22;18502;43.574;1.276;2022-10-16T01:00:52;17.10;99.90
31979;DHT22;18502;43.574;1.276;2022-10-16T01:03:28;17.20;99.90
31979;DHT22;18502;43.574;1.276;2022-10-16T01:08:44;17.30;99.90
31979;DHT22;18502;43.574;1.276;2022-10-16T01:11:22;17.30;99.90
31979;DHT22;18502;43.574;1.276;2022-10-16T01:13:55;17.30;99.90
31979;DHT22;18502;43.574;1.276;2022-10-16T01:16:34;17.30;99.90
31979;DHT22;18502;43.574;1.276;2022-10-16T01:21:47;17.40;99.90
31979;DHT22;18502;43.574;1.276;2022-10-16T01:29:59;17.50;99.90
31979;DHT22;18502;43.574;1.276;2022-10-16T01:32:59;17.50;99.90
31979;DHT22;18502;43.574;1.276;2022-10-16T01:35:26;17.50;99.90
31979;DHT22;18502;43.574;1.276;2022-10-16T01:37:58;17.50;99.90
31979;DHT22;18502;43.574;1.276;2022-10-16T01:40:26;17.50;99.90
31979;DHT22;18502;43.574;1.276;2022-10-16T01:43:17;17.50;99.90
31979;DHT22;18502;43.574;1.276;2022-10-16T01:45:42;17.50;99.90
31979;DHT22;18502;43.574;1.276;2022-10-16T01:48:12;17.60;99.90
31979;DHT22;18502;43.574;1.276;2022-10-16T01:50:40;17.50;99.90
31979;DHT22;18502;43.574;1.276;2022-10-16T01:53:09;17.60;99.90
31979;DHT22;18502;43.574;1.276;2022-10-16T01:55:43;17.50;99.90
31979;DHT22;18502;43.574;1.276;2022-10-16T01:58:12;17.50;99.90
31979;DHT22;18502;43.574;1.276;2022-10-16T02:00:40;17.50;99.90
31979;DHT22;18502;43.574;1.276;2022-10-16T02:03:08;17.60;99.90
31979;DHT22;18502;43.574;1.276;2022-10-16T02:05:50;17.60;99.90
31979;DHT22;18502;43.574;1.276;2022-10-16T02:08:17;17.60;99.90
31979;DHT22;18502;43.574;1.276;2022-10-16T02:10:43;17.50;99.90
31979;DHT22;18502;43.574;1.276;2022-10-16T02:13:32;17.50;99.90
31979;DHT22;18502;43.574;1.276;2022-10-16T02:15:59;17.40;99.90
31979;DHT22;18502;43.574;1.276;2022-10-16T02:18:25;17.40;99.90
31979;DHT22;18502;43.574;1.276;2022-10-16T02:21:01;17.40;99.90
31979;DHT22;18502;43.574;1.276;2022-10-16T02:23:35;17.30;99.90
31979;DHT22;18502;43.574;1.276;2022-10-16T02:26:07;17.30;99.90
31979;DHT22;18502;43.574;1.276;2022-10-16T02:29:02;17.20;99.90
31979;DHT22;18502;43.574;1.276;2022-10-16T02:31:34;17.20;99.90
31979;DHT22;18502;43.574;1.276;2022-10-16T02:34:02;17.10;99.90
31979;DHT22;18502;43.574;1.276;2022-10-16T02:36:31;17.10;99.90
31979;DHT22;18502;43.574;1.276;2022-10-16T02:38:58;17.10;99.90
31979;DHT22;18502;43.574;1.276;2022-10-16T02:41:26;17.00;99.90
31979;DHT22;18502;43.574;1.276;2022-10-16T02:43:52;17.10;99.90
31979;DHT22;18502;43.574;1.276;2022-10-16T02:46:17;17.10;99.90
31979;DHT22;18502;43.574;1.276;2022-10-16T02:48:43;17.00;99.90
31979;DHT22;18502;43.574;1.276;2022-10-16T02:51:09;16.90;99.90
31979;DHT22;18502;43.574;1.276;2022-10-16T02:53:35;16.90;99.90
31979;DHT22;18502;43.574;1.276;2022-10-16T02:56:01;17.00;99.90
31979;DHT22;18502;43.574;1.276;2022-10-16T02:58:27;16.90;99.90
31979;DHT22;18502;43.574;1.276;2022-10-16T03:00:52;16.90;99.90
31979;DHT22;18502;43.574;1.276;2022-10-16T03:03:18;16.80;99.90
31979;DHT22;18502;43.574;1.276;2022-10-16T03:05:44;16.90;99.90
31979;DHT22;18502;43.574;1.276;2022-10-16T03:08:11;16.90;99.90
31979;DHT22;18502;43.574;1.276;2022-10-16T03:10:37;16.90;99.90
31979;DHT22;18502;43.574;1.276;2022-10-16T03:13:03;16.90;99.90
31979;DHT22;18502;43.574;1.276;2022-10-16T03:15:28;16.80;99.90
31979;DHT22;18502;43.574;1.276;2022-10-16T03:17:57;16.80;99.90
31979;DHT22;18502;43.574;1.276;2022-10-16T03:20:22;16.80;99.90
31979;DHT22;18502;43.574;1.276;2022-10-16T03:22:48;16.80;99.90
31979;DHT22;18502;43.574;1.276;2022-10-16T03:25:14;16.70;99.90
31979;DHT22;18502;43.574;1.276;2022-10-16T03:27:39;16.70;99.90
31979;DHT22;18502;43.574;1.276;2022-10-16T03:30:05;16.70;99.90
31979;DHT22;18502;43.574;1.276;2022-10-16T03:32:31;16.70;99.90
31979;DHT22;18502;43.574;1.276;2022-10-16T03:34:57;16.70;99.90
31979;DHT22;18502;43.574;1.276;2022-10-16T03:37:23;16.70;99.90
31979;DHT22;18502;43.574;1.276;2022-10-16T03:39:48;16.70;99.90
31979;DHT22;18502;43.574;1.276;2022-10-16T03:42:14;16.70;99.90
31979;DHT22;18502;43.574;1.276;2022-10-16T03:44:40;16.70;99.90
31979;DHT22;18502;43.574;1.276;2022-10-16T03:47:05;16.80;99.90
31979;DHT22;18502;43.574;1.276;2022-10-16T03:49:31;16.90;99.90
31979;DHT22;18502;43.574;1.276;2022-10-16T03:51:57;16.90;99.90
31979;DHT22;18502;43.574;1.276;2022-10-16T03:54:22;17.00;99.90
31979;DHT22;18502;43.574;1.276;2022-10-16T03:56:48;17.00;99.90
31979;DHT22;18502;43.574;1.276;2022-10-16T03:59:14;17.10;99.90
31979;DHT22;18502;43.574;1.276;2022-10-16T04:01:39;17.10;99.90
31979;DHT22;18502;43.574;1.276;2022-10-16T04:04:05;17.10;99.90
31979;DHT22;18502;43.574;1.276;2022-10-16T04:06:31;17.10;99.90
31979;DHT22;18502;43.574;1.276;2022-10-16T04:08:57;17.10;99.90
31979;DHT22;18502;43.574;1.276;2022-10-16T04:11:22;17.10;99.90
31979;DHT22;18502;43.574;1.276;2022-10-16T04:13:48;17.20;99.90
31979;DHT22;18502;43.574;1.276;2022-10-16T04:16:14;17.30;99.90
31979;DHT22;18502;43.574;1.276;2022-10-16T04:18:40;17.30;99.90
31979;DHT22;18502;43.574;1.276;2022-10-16T04:21:06;17.40;99.90
31979;DHT22;18502;43.574;1.276;2022-10-16T04:23:32;17.50;99.90
31979;DHT22;18502;43.574;1.276;2022-10-16T04:25:58;17.50;99.90
31979;DHT22;18502;43.574;1.276;2022-10-16T04:28:23;17.50;99.90
31979;DHT22;18502;43.574;1.276;2022-10-16T04:30:49;17.50;99.90
31979;DHT22;18502;43.574;1.276;2022-10-16T04:33:15;17.50;99.90
31979;DHT22;18502;43.574;1.276;2022-10-16T04:35:40;17.50;99.90
31979;DHT22;18502;43.574;1.276;2022-10-16T04:38:06;17.50;99.90
31979;DHT22;18502;43.574;1.276;2022-10-16T04:40:32;17.50;99.90
31979;DHT22;18502;43.574;1.276;2022-10-16T04:43:04;17.60;99.90
31979;DHT22;18502;43.574;1.276;2022-10-16T04:45:30;17.60;99.90
31979;DHT22;18502;43.574;1.276;2022-10-16T04:47:59;17.60;99.90
31979;DHT22;18502;43.574;1.276;2022-10-16T04:50:25;17.60;99.90
31979;DHT22;18502;43.574;1.276;2022-10-16T04:52:50;17.70;99.90
31979;DHT22;18502;43.574;1.276;2022-10-16T04:55:16;17.70;99.90
31979;DHT22;18502;43.574;1.276;2022-10-16T04:57:42;17.70;99.90
31979;DHT22;18502;43.574;1.276;2022-10-16T05:00:08;17.80;99.90
31979;DHT22;18502;43.574;1.276;2022-10-16T05:02:34;17.70;99.90
31979;DHT22;18502;43.574;1.276;2022-10-16T05:05:00;17.70;99.90
31979;DHT22;18502;43.574;1.276;2022-10-16T05:07:25;17.80;99.90
31979;DHT22;18502;43.574;1.276;2022-10-16T05:09:51;17.80;99.90
31979;DHT22;18502;43.574;1.276;2022-10-16T05:12:17;17.70;99.90
31979;DHT22;18502;43.574;1.276;2022-10-16T05:14:43;17.80;99.90
31979;DHT22;18502;43.574;1.276;2022-10-16T05:17:08;17.80;99.90
31979;DHT22;18502;43.574;1.276;2022-10-16T05:19:34;17.80;99.90
31979;DHT22;18502;43.574;1.276;2022-10-16T05:22:00;17.80;99.90
31979;DHT22;18502;43.574;1.276;2022-10-16T05:24:26;17.90;99.90
31979;DHT22;18502;43.574;1.276;2022-10-16T05:26:52;17.90;99.90
31979;DHT22;18502;43.574;1.276;2022-10-16T05:29:18;17.80;99.90
31979;DHT22;18502;43.574;1.276;2022-10-16T05:31:44;17.90;99.90
31979;DHT22;18502;43.574;1.276;2022-10-16T05:34:09;17.90;99.90
31979;DHT22;18502;43.574;1.276;2022-10-16T05:36:35;18.00;99.90
31979;DHT22;18502;43.574;1.276;2022-10-16T05:39:01;18.00;99.90
31979;DHT22;18502;43.574;1.276;2022-10-16T05:41:27;17.90;99.90
31979;DHT22;18502;43.574;1.276;2022-10-16T05:43:53;18.00;99.90
31979;DHT22;18502;43.574;1.276;2022-10-16T05:46:19;18.00;99.90
31979;DHT22;18502;43.574;1.276;2022-10-16T05:48:45;18.00;99.90
31979;DHT22;18502;43.574;1.276;2022-10-16T05:51:12;18.00;99.90
31979;DHT22;18502;43.574;1.276;2022-10-16T05:53:39;18.00;99.90
31979;DHT22;18502;43.574;1.276;2022-10-16T05:56:06;18.00;99.90
31979;DHT22;18502;43.574;1.276;2022-10-16T05:58:34;18.00;99.90
31979;DHT22;18502;43.574;1.276;2022-10-16T06:01:05;18.10;99.90
31979;DHT22;18502;43.574;1.276;2022-10-16T06:03:33;18.00;99.90
31979;DHT22;18502;43.574;1.276;2022-10-16T06:05:58;18.00;99.90
31979;DHT22;18502;43.574;1.276;2022-10-16T06:08:24;18.10;99.90
31979;DHT22;18502;43.574;1.276;2022-10-16T06:11:04;18.10;99.90
31979;DHT22;18502;43.574;1.276;2022-10-16T06:13:30;18.10;99.90
31979;DHT22;18502;43.574;1.276;2022-10-16T06:15:58;18.10;99.90
31979;DHT22;18502;43.574;1.276;2022-10-16T06:18:24;18.10;99.90
31979;DHT22;18502;43.574;1.276;2022-10-16T06:20:50;18.10;99.90
31979;DHT22;18502;43.574;1.276;2022-10-16T06:25:42;18.20;99.90
31979;DHT22;18502;43.574;1.276;2022-10-16T06:28:07;18.20;99.90
31979;DHT22;18502;43.574;1.276;2022-10-16T06:30:33;18.20;99.90
31979;DHT22;18502;43.574;1.276;2022-10-16T06:32:58;18.20;99.90
31979;DHT22;18502;43.574;1.276;2022-10-16T06:35:24;18.20;99.90
31979;DHT22;18502;43.574;1.276;2022-10-16T06:37:50;18.30;99.90
31979;DHT22;18502;43.574;1.276;2022-10-16T06:40:15;18.30;99.90
31979;DHT22;18502;43.574;1.276;2022-10-16T06:42:42;18.30;99.90
31979;DHT22;18502;43.574;1.276;2022-10-16T06:45:07;18.30;99.90
31979;DHT22;18502;43.574;1.276;2022-10-16T06:47:33;18.40;99.90
31979;DHT22;18502;43.574;1.276;2022-10-16T06:49:59;18.40;99.90
31979;DHT22;18502;43.574;1.276;2022-10-16T06:52:27;18.40;99.90
31979;DHT22;18502;43.574;1.276;2022-10-16T06:54:52;18.50;99.90
31979;DHT22;18502;43.574;1.276;2022-10-16T06:57:18;18.50;99.90
31979;DHT22;18502;43.574;1.276;2022-10-16T06:59:44;18.50;99.90
31979;DHT22;18502;43.574;1.276;2022-10-16T07:02:09;18.60;99.90
31979;DHT22;18502;43.574;1.276;2022-10-16T07:04:36;18.60;99.90
31979;DHT22;18502;43.574;1.276;2022-10-16T07:07:02;18.60;99.90
31979;DHT22;18502;43.574;1.276;2022-10-16T07:09:28;18.60;99.90
31979;DHT22;18502;43.574;1.276;2022-10-16T07:11:53;18.60;99.90
31979;DHT22;18502;43.574;1.276;2022-10-16T07:14:20;18.60;99.90
31979;DHT22;18502;43.574;1.276;2022-10-16T07:16:47;18.70;99.90
31979;DHT22;18502;43.574;1.276;2022-10-16T07:19:13;18.70;99.90
31979;DHT22;18502;43.574;1.276;2022-10-16T07:21:41;18.70;99.90
31979;DHT22;18502;43.574;1.276;2022-10-16T07:24:11;18.60;99.90
31979;DHT22;18502;43.574;1.276;2022-10-16T07:26:38;18.70;99.90
31979;DHT22;18502;43.574;1.276;2022-10-16T07:29:07;18.70;99.90
31979;DHT22;18502;43.574;1.276;2022-10-16T07:31:33;18.70;99.90
31979;DHT22;18502;43.574;1.276;2022-10-16T07:33:59;18.80;99.90
31979;DHT22;18502;43.574;1.276;2022-10-16T07:36:25;18.80;99.90
31979;DHT22;18502;43.574;1.276;2022-10-16T07:38:51;18.90;99.90
31979;DHT22;18502;43.574;1.276;2022-10-16T07:41:18;18.90;99.90
31979;DHT22;18502;43.574;1.276;2022-10-16T07:43:54;19.10;99.90
31979;DHT22;18502;43.574;1.276;2022-10-16T07:46:21;19.20;99.90
31979;DHT22;18502;43.574;1.276;2022-10-16T07:48:47;19.30;99.90
31979;DHT22;18502;43.574;1.276;2022-10-16T07:51:15;19.20;99.90
31979;DHT22;18502;43.574;1.276;2022-10-16T07:53:42;19.20;99.90
31979;DHT22;18502;43.574;1.276;2022-10-16T07:56:08;19.20;99.90
31979;DHT22;18502;43.574;1.276;2022-10-16T07:58:35;19.20;99.90
31979;DHT22;18502;43.574;1.276;2022-10-16T08:01:07;19.30;99.90
31979;DHT22;18502;43.574;1.276;2022-10-16T08:03:33;19.40;99.90
31979;DHT22;18502;43.574;1.276;2022-10-16T08:05:59;19.60;99.90
31979;DHT22;18502;43.574;1.276;2022-10-16T08:08:25;19.70;99.90
31979;DHT22;18502;43.574;1.276;2022-10-16T08:10:52;19.90;99.90
31979;DHT22;18502;43.574;1.276;2022-10-16T08:13:18;20.00;99.90
31979;DHT22;18502;43.574;1.276;2022-10-16T08:15:44;20.20;99.90
31979;DHT22;18502;43.574;1.276;2022-10-16T08:18:11;20.30;99.90
31979;DHT22;18502;43.574;1.276;2022-10-16T08:20:38;20.40;99.90
31979;DHT22;18502;43.574;1.276;2022-10-16T08:23:04;20.60;99.90
31979;DHT22;18502;43.574;1.276;2022-10-16T08:25:30;20.60;99.90
31979;DHT22;18502;43.574;1.276;2022-10-16T08:27:56;20.80;99.90
31979;DHT22;18502;43.574;1.276;2022-10-16T08:30:23;20.90;99.90
31979;DHT22;18502;43.574;1.276;2022-10-16T08:32:49;20.90;99.90
31979;DHT22;18502;43.574;1.276;2022-10-16T08:35:15;20.90;99.90
31979;DHT22;18502;43.574;1.276;2022-10-16T08:37:42;21.00;99.90
31979;DHT22;18502;43.574;1.276;2022-10-16T08:40:20;21.10;99.90
31979;DHT22;18502;43.574;1.276;2022-10-16T08:48:41;21.20;99.90
31979;DHT22;18502;43.574;1.276;2022-10-16T08:51:10;21.40;99.90
31979;DHT22;18502;43.574;1.276;2022-10-16T08:53:48;21.60;99.90
31979;DHT22;18502;43.574;1.276;2022-10-16T08:56:14;21.60;99.90
31979;DHT22;18502;43.574;1.276;2022-10-16T08:58:40;22.30;99.90
31979;DHT22;18502;43.574;1.276;2022-10-16T09:01:12;23.70;99.90
31979;DHT22;18502;43.574;1.276;2022-10-16T09:06:30;24.50;99.90
31979;DHT22;18502;43.574;1.276;2022-10-16T09:12:10;25.60;99.90
31979;DHT22;18502;43.574;1.276;2022-10-16T09:14:56;26.10;99.90
31979;DHT22;18502;43.574;1.276;2022-10-16T09:17:32;26.00;99.90
31979;DHT22;18502;43.574;1.276;2022-10-16T09:20:42;26.30;99.90
31979;DHT22;18502;43.574;1.276;2022-10-16T09:23:22;26.60;99.90
31979;DHT22;18502;43.574;1.276;2022-10-16T09:25:49;26.40;99.90
31979;DHT22;18502;43.574;1.276;2022-10-16T09:28:17;25.80;99.90
31979;DHT22;18502;43.574;1.276;2022-10-16T09:30:43;26.40;99.90
31979;DHT22;18502;43.574;1.276;2022-10-16T09:33:12;26.80;99.90
31979;DHT22;18502;43.574;1.276;2022-10-16T09:35:58;26.50;99.90
31979;DHT22;18502;43.574;1.276;2022-10-16T09:38:29;26.90;99.90
31979;DHT22;18502;43.574;1.276;2022-10-16T09:40:57;26.50;99.90
31979;DHT22;18502;43.574;1.276;2022-10-16T09:46:03;26.90;99.90
31979;DHT22;18502;43.574;1.276;2022-10-16T09:48:48;26.70;99.90
31979;DHT22;18502;43.574;1.276;2022-10-16T09:51:23;26.40;99.90
31979;DHT22;18502;43.574;1.276;2022-10-16T09:56:26;26.30;99.90
31979;DHT22;18502;43.574;1.276;2022-10-16T09:58:53;26.90;99.90
31979;DHT22;18502;43.574;1.276;2022-10-16T10:01:21;26.60;99.90
31979;DHT22;18502;43.574;1.276;2022-10-16T10:03:48;26.60;99.90
31979;DHT22;18502;43.574;1.276;2022-10-16T10:06:25;27.10;99.90
31979;DHT22;18502;43.574;1.276;2022-10-16T10:16:38;29.00;97.20
31979;DHT22;18502;43.574;1.276;2022-10-16T10:19:04;28.00;97.60
31979;DHT22;18502;43.574;1.276;2022-10-16T10:21:33;28.60;97.00
31979;DHT22;18502;43.574;1.276;2022-10-16T10:23:59;28.80;95.80
31979;DHT22;18502;43.574;1.276;2022-10-16T10:26:27;30.20;93.80
31979;DHT22;18502;43.574;1.276;2022-10-16T10:45:28;30.00;89.50
31979;DHT22;18502;43.574;1.276;2022-10-16T10:52:01;31.40;85.60
31979;DHT22;18502;43.574;1.276;2022-10-16T10:56:42;31.50;82.90
31979;DHT22;18502;43.574;1.276;2022-10-16T10:59:35;30.60;85.00
31979;DHT22;18502;43.574;1.276;2022-10-16T11:04:58;30.10;85.40
31979;DHT22;18502;43.574;1.276;2022-10-16T11:07:30;30.20;85.40
31979;DHT22;18502;43.574;1.276;2022-10-16T11:10:45;30.90;84.10
31979;DHT22;18502;43.574;1.276;2022-10-16T11:13:26;30.40;83.40
31979;DHT22;18502;43.574;1.276;2022-10-16T11:15:58;30.80;84.00
31979;DHT22;18502;43.574;1.276;2022-10-16T11:21:18;32.60;78.20
31979;DHT22;18502;43.574;1.276;2022-10-16T11:26:20;32.20;78.50
31979;DHT22;18502;43.574;1.276;2022-10-16T11:28:50;34.00;73.20
31979;DHT22;18502;43.574;1.276;2022-10-16T11:31:36;34.50;71.40
31979;DHT22;18502;43.574;1.276;2022-10-16T11:34:27;34.20;69.10
31979;DHT22;18502;43.574;1.276;2022-10-16T11:37:11;34.20;70.10
31979;DHT22;18502;43.574;1.276;2022-10-16T11:39:38;34.10;68.20
31979;DHT22;18502;43.574;1.276;2022-10-16T11:42:19;33.80;69.70
31979;DHT22;18502;43.574;1.276;2022-10-16T11:48:02;34.50;67.70
31979;DHT22;18502;43.574;1.276;2022-10-16T11:55:41;32.90;67.00
31979;DHT22;18502;43.574;1.276;2022-10-16T11:58:30;33.20;67.00
31979;DHT22;18502;43.574;1.276;2022-10-16T12:09:26;34.40;62.60
31979;DHT22;18502;43.574;1.276;2022-10-16T12:11:52;35.50;60.30
31979;DHT22;18502;43.574;1.276;2022-10-16T12:14:22;33.60;63.50
31979;DHT22;18502;43.574;1.276;2022-10-16T12:17:04;32.90;64.50
31979;DHT22;18502;43.574;1.276;2022-10-16T12:19:58;32.90;65.40
31979;DHT22;18502;43.574;1.276;2022-10-16T12:22:28;31.90;67.20
31979;DHT22;18502;43.574;1.276;2022-10-16T12:24:54;33.00;65.30
31979;DHT22;18502;43.574;1.276;2022-10-16T12:30:04;35.70;60.80
31979;DHT22;18502;43.574;1.276;2022-10-16T12:32:38;32.90;65.70
31979;DHT22;18502;43.574;1.276;2022-10-16T12:35:16;34.00;65.60
31979;DHT22;18502;43.574;1.276;2022-10-16T12:37:44;36.60;58.70
31979;DHT22;18502;43.574;1.276;2022-10-16T12:40:31;35.30;59.00
31979;DHT22;18502;43.574;1.276;2022-10-16T12:42:57;33.60;62.70
31979;DHT22;18502;43.574;1.276;2022-10-16T12:45:32;32.30;65.10
31979;DHT22;18502;43.574;1.276;2022-10-16T12:48:00;32.80;64.20
31979;DHT22;18502;43.574;1.276;2022-10-16T12:52:59;30.30;68.30
31979;DHT22;18502;43.574;1.276;2022-10-16T12:55:26;31.00;67.20
31979;DHT22;18502;43.574;1.276;2022-10-16T13:01:04;33.30;61.20
31979;DHT22;18502;43.574;1.276;2022-10-16T13:09:34;31.80;64.90
31979;DHT22;18502;43.574;1.276;2022-10-16T13:12:29;33.80;62.00
31979;DHT22;18502;43.574;1.276;2022-10-16T13:26:44;29.20;70.80
31979;DHT22;18502;43.574;1.276;2022-10-16T13:29:12;31.90;66.30
31979;DHT22;18502;43.574;1.276;2022-10-16T13:31:39;35.50;59.10
31979;DHT22;18502;43.574;1.276;2022-10-16T13:34:06;34.70;58.70
31979;DHT22;18502;43.574;1.276;2022-10-16T13:36:44;33.70;60.30
31979;DHT22;18502;43.574;1.276;2022-10-16T13:41:42;34.60;59.00
31979;DHT22;18502;43.574;1.276;2022-10-16T13:44:19;35.70;57.50
31979;DHT22;18502;43.574;1.276;2022-10-16T13:46:57;35.60;58.20
31979;DHT22;18502;43.574;1.276;2022-10-16T13:49:23;32.50;61.50
31979;DHT22;18502;43.574;1.276;2022-10-16T13:51:59;33.10;62.50
31979;DHT22;18502;43.574;1.276;2022-10-16T13:54:26;32.20;64.20
31979;DHT22;18502;43.574;1.276;2022-10-16T13:56:54;33.60;61.50
31979;DHT22;18502;43.574;1.276;2022-10-16T13:59:40;34.40;59.60
31979;DHT22;18502;43.574;1.276;2022-10-16T14:04:42;33.80;60.40
31979;DHT22;18502;43.574;1.276;2022-10-16T14:07:14;34.20;59.60
31979;DHT22;18502;43.574;1.276;2022-10-16T14:09:41;32.50;60.90
31979;DHT22;18502;43.574;1.276;2022-10-16T14:12:11;32.80;60.60
31979;DHT22;18502;43.574;1.276;2022-10-16T14:14:42;33.30;59.90
31979;DHT22;18502;43.574;1.276;2022-10-16T14:17:35;32.90;59.70
31979;DHT22;18502;43.574;1.276;2022-10-16T14:20:04;33.30;59.90
31979;DHT22;18502;43.574;1.276;2022-10-16T14:22:40;33.00;60.00
31979;DHT22;18502;43.574;1.276;2022-10-16T14:27:44;33.00;59.20
31979;DHT22;18502;43.574;1.276;2022-10-16T14:30:21;32.30;61.90
31979;DHT22;18502;43.574;1.276;2022-10-16T14:33:24;30.60;64.60
31979;DHT22;18502;43.574;1.276;2022-10-16T14:36:02;30.10;66.40
31979;DHT22;18502;43.574;1.276;2022-10-16T14:38:29;28.40;72.00
31979;DHT22;18502;43.574;1.276;2022-10-16T14:40:57;28.40;72.10
31979;DHT22;18502;43.574;1.276;2022-10-16T14:43:34;27.90;73.10
31979;DHT22;18502;43.574;1.276;2022-10-16T14:46:02;27.70;74.40
31979;DHT22;18502;43.574;1.276;2022-10-16T14:48:29;26.80;76.60
31979;DHT22;18502;43.574;1.276;2022-10-16T14:50:55;26.50;79.40
31979;DHT22;18502;43.574;1.276;2022-10-16T14:53:21;26.50;80.50
31979;DHT22;18502;43.574;1.276;2022-10-16T14:55:47;26.30;82.10
31979;DHT22;18502;43.574;1.276;2022-10-16T14:58:19;26.80;82.20
31979;DHT22;18502;43.574;1.276;2022-10-16T15:00:45;27.20;82.30
31979;DHT22;18502;43.574;1.276;2022-10-16T15:03:12;27.80;80.60
31979;DHT22;18502;43.574;1.276;2022-10-16T15:05:37;28.80;78.90
31979;DHT22;18502;43.574;1.276;2022-10-16T15:08:03;29.80;77.20
31979;DHT22;18502;43.574;1.276;2022-10-16T15:10:31;29.90;76.10
31979;DHT22;18502;43.574;1.276;2022-10-16T15:12:58;31.20;74.10
31979;DHT22;18502;43.574;1.276;2022-10-16T15:15:51;30.00;74.40
31979;DHT22;18502;43.574;1.276;2022-10-16T15:18:18;28.40;79.20
31979;DHT22;18502;43.574;1.276;2022-10-16T15:20:51;28.70;78.90
31979;DHT22;18502;43.574;1.276;2022-10-16T15:23:22;29.50;77.10
31979;DHT22;18502;43.574;1.276;2022-10-16T15:25:52;29.40;77.00
31979;DHT22;18502;43.574;1.276;2022-10-16T15:28:19;29.70;76.00
31979;DHT22;18502;43.574;1.276;2022-10-16T15:30:45;30.50;76.10
31979;DHT22;18502;43.574;1.276;2022-10-16T15:33:16;30.90;74.80
31979;DHT22;18502;43.574;1.276;2022-10-16T15:35:42;32.20;72.50
31979;DHT22;18502;43.574;1.276;2022-10-16T15:38:12;31.00;73.60
31979;DHT22;18502;43.574;1.276;2022-10-16T15:40:39;32.90;69.90
31979;DHT22;18502;43.574;1.276;2022-10-16T15:43:05;33.20;68.60
31979;DHT22;18502;43.574;1.276;2022-10-16T15:45:31;32.60;70.20
31979;DHT22;18502;43.574;1.276;2022-10-16T15:47:57;31.20;72.90
31979;DHT22;18502;43.574;1.276;2022-10-16T15:50:23;31.60;72.00
31979;DHT22;18502;43.574;1.276;2022-10-16T15:52:50;30.80;74.40
31979;DHT22;18502;43.574;1.276;2022-10-16T15:55:15;30.80;73.60
31979;DHT22;18502;43.574;1.276;2022-10-16T15:57:42;30.10;74.90
31979;DHT22;18502;43.574;1.276;2022-10-16T16:00:14;28.00;80.20
31979;DHT22;18502;43.574;1.276;2022-10-16T16:02:42;26.50;85.20
31979;DHT22;18502;43.574;1.276;2022-10-16T16:05:09;26.70;85.80
31979;DHT22;18502;43.574;1.276;2022-10-16T16:07:36;26.40;86.70
31979;DHT22;18502;43.574;1.276;2022-10-16T16:10:05;26.40;87.50
31979;DHT22;18502;43.574;1.276;2022-10-16T16:12:32;26.60;86.30
31979;DHT22;18502;43.574;1.276;2022-10-16T16:14:58;25.90;88.20
31979;DHT22;18502;43.574;1.276;2022-10-16T16:17:23;25.70;90.10
31979;DHT22;18502;43.574;1.276;2022-10-16T16:19:50;25.40;90.90
31979;DHT22;18502;43.574;1.276;2022-10-16T16:22:16;24.80;92.00
31979;DHT22;18502;43.574;1.276;2022-10-16T16:24:42;24.50;93.20
31979;DHT22;18502;43.574;1.276;2022-10-16T16:27:08;24.50;93.70
31979;DHT22;18502;43.574;1.276;2022-10-16T16:29:34;24.20;94.40
31979;DHT22;18502;43.574;1.276;2022-10-16T16:32:00;24.00;95.10
31979;DHT22;18502;43.574;1.276;2022-10-16T16:34:27;24.00;95.30
31979;DHT22;18502;43.574;1.276;2022-10-16T16:36:54;23.80;96.10
31979;DHT22;18502;43.574;1.276;2022-10-16T16:39:20;23.70;96.80
31979;DHT22;18502;43.574;1.276;2022-10-16T16:41:46;23.50;97.60
31979;DHT22;18502;43.574;1.276;2022-10-16T16:44:13;23.40;98.30
31979;DHT22;18502;43.574;1.276;2022-10-16T16:46:40;23.40;98.50
31979;DHT22;18502;43.574;1.276;2022-10-16T16:49:06;23.20;99.10
31979;DHT22;18502;43.574;1.276;2022-10-16T16:51:33;23.10;99.90
31979;DHT22;18502;43.574;1.276;2022-10-16T16:53:59;22.90;99.90
31979;DHT22;18502;43.574;1.276;2022-10-16T16:56:25;22.80;99.90
31979;DHT22;18502;43.574;1.276;2022-10-16T16:58:53;22.70;99.90
31979;DHT22;18502;43.574;1.276;2022-10-16T17:01:20;22.70;99.90
31979;DHT22;18502;43.574;1.276;2022-10-16T17:03:47;22.50;99.90
31979;DHT22;18502;43.574;1.276;2022-10-16T17:06:15;22.40;99.90
31979;DHT22;18502;43.574;1.276;2022-10-16T17:08:41;22.30;99.90
31979;DHT22;18502;43.574;1.276;2022-10-16T17:11:19;22.20;99.90
31979;DHT22;18502;43.574;1.276;2022-10-16T17:13:45;22.10;99.90
31979;DHT22;18502;43.574;1.276;2022-10-16T17:16:11;22.00;99.90
31979;DHT22;18502;43.574;1.276;2022-10-16T17:18:36;22.00;99.90
31979;DHT22;18502;43.574;1.276;2022-10-16T17:21:05;22.00;99.90
31979;DHT22;18502;43.574;1.276;2022-10-16T17:23:31;21.90;99.90
31979;DHT22;18502;43.574;1.276;2022-10-16T17:25:59;21.90;99.90
31979;DHT22;18502;43.574;1.276;2022-10-16T17:28:27;21.80;99.90
31979;DHT22;18502;43.574;1.276;2022-10-16T17:30:53;21.70;99.90
31979;DHT22;18502;43.574;1.276;2022-10-16T17:33:18;21.70;99.90
31979;DHT22;18502;43.574;1.276;2022-10-16T17:35:45;21.70;99.90
31979;DHT22;18502;43.574;1.276;2022-10-16T17:38:13;21.70;99.90
31979;DHT22;18502;43.574;1.276;2022-10-16T17:40:41;21.60;99.90
31979;DHT22;18502;43.574;1.276;2022-10-16T17:43:08;21.50;99.90
31979;DHT22;18502;43.574;1.276;2022-10-16T17:45:37;21.50;99.90
31979;DHT22;18502;43.574;1.276;2022-10-16T17:48:04;21.50;99.90